createdAt,value
2023-02-01T00:00:34.278Z,97949.00
2023-02-01T00:06:00.473Z,97940.00
2023-02-01T00:11:23.215Z,97947.00
2023-02-01T00:16:44.878Z,97944.00
2023-02-01T00:22:06.241Z,97948.00
2023-02-01T00:27:27.663Z,97946.00
2023-02-01T00:32:49.307Z,97946.00
2023-02-01T00:38:10.660Z,97944.00
2023-02-01T00:43:35.712Z,97948.00
2023-02-01T00:48:57.612Z,97937.00
2023-02-01T00:54:18.910Z,97949.00
2023-02-01T00:59:40.418Z,97945.00
2023-02-01T01:05:01.635Z,97957.00
2023-02-01T01:10:23.691Z,97954.00
2023-02-01T01:15:45.538Z,97953.00
2023-02-01T01:21:09.887Z,97961.00
2023-02-01T01:26:32.034Z,97962.00
2023-02-01T01:31:53.177Z,97954.00
2023-02-01T01:37:14.752Z,97958.00
2023-02-01T01:42:44.443Z,97944.00
2023-02-01T01:48:26.759Z,97951.00
2023-02-01T01:54:01.677Z,97946.00
2023-02-01T01:59:24.389Z,97942.00
2023-02-01T02:04:45.847Z,97951.00
2023-02-01T02:10:11.802Z,97933.00
2023-02-01T02:15:35.186Z,97931.00
2023-02-01T02:21:24.691Z,97916.00
2023-02-01T02:26:51.850Z,97922.00
2023-02-01T02:32:32.393Z,97918.00
2023-02-01T02:38:10.739Z,97907.00
2023-02-01T02:44:11.503Z,97896.00
2023-02-01T02:49:42.513Z,97898.00
2023-02-01T02:55:06.843Z,97871.00
2023-02-01T03:00:53.641Z,97879.00
2023-02-01T03:06:19.880Z,97886.00
2023-02-01T03:12:05.015Z,97887.00
2023-02-01T03:17:36.784Z,97886.00
2023-02-01T03:23:00.602Z,97883.00
2023-02-01T03:28:24.659Z,97875.00
2023-02-01T03:33:46.460Z,97881.00
2023-02-01T03:39:33.221Z,97871.00
2023-02-01T03:45:12.024Z,97889.00
2023-02-01T03:50:37.995Z,97878.00
2023-02-01T03:56:02.116Z,97886.00
2023-02-01T04:01:24.532Z,97877.00
2023-02-01T04:06:46.009Z,97883.00
2023-02-01T04:12:07.719Z,97873.00
2023-02-01T04:17:29.193Z,97852.00
2023-02-01T04:22:50.939Z,97868.00
2023-02-01T04:28:12.679Z,97858.00
2023-02-01T04:33:34.160Z,97854.00
2023-02-01T04:38:55.786Z,97848.00
2023-02-01T04:44:21.079Z,97848.00
2023-02-01T04:49:42.661Z,97842.00
2023-02-01T04:55:04.834Z,97831.00
2023-02-01T05:00:26.379Z,97821.00
2023-02-01T05:05:50.032Z,97815.00
2023-02-01T05:11:31.228Z,97802.00
2023-02-01T05:16:52.520Z,97790.00
2023-02-01T05:22:14.094Z,97768.00
2023-02-01T05:27:35.685Z,97754.00
2023-02-01T05:32:57.186Z,97752.00
2023-02-01T05:38:18.769Z,97759.00
2023-02-01T05:43:40.313Z,97761.00
2023-02-01T05:49:02.042Z,97770.00
2023-02-01T05:54:23.485Z,97758.00
2023-02-01T05:59:48.611Z,97758.00
2023-02-01T06:05:10.278Z,97755.00
2023-02-01T06:10:31.831Z,97752.00
2023-02-01T06:15:53.632Z,97745.00
2023-02-01T06:21:16.911Z,97748.00
2023-02-01T06:26:38.621Z,97741.00
2023-02-01T06:32:00.721Z,97754.00
2023-02-01T06:37:23.012Z,97771.00
2023-02-01T06:42:44.563Z,97770.00
2023-02-01T06:48:06.168Z,97772.00
2023-02-01T06:53:27.751Z,97767.00
2023-02-01T06:58:50.152Z,97757.00
2023-02-01T07:04:13.340Z,97755.00
2023-02-01T07:09:34.638Z,97749.00
2023-02-01T07:14:57.463Z,97737.00
2023-02-01T07:20:19.868Z,97747.00
2023-02-01T07:25:41.263Z,97746.00
2023-02-01T07:31:09.877Z,97726.00
2023-02-01T07:36:31.606Z,97733.00
2023-02-01T07:41:53.009Z,97732.00
2023-02-01T07:47:14.672Z,97724.00
2023-02-01T07:52:36.131Z,97713.00
2023-02-01T07:58:00.762Z,97707.00
2023-02-01T08:03:22.514Z,97708.00
2023-02-01T08:08:46.305Z,97703.00
2023-02-01T08:14:08.115Z,97702.00
2023-02-01T08:19:29.749Z,97689.00
2023-02-01T08:24:51.640Z,97696.00
2023-02-01T08:30:13.370Z,97706.00
2023-02-01T08:35:43.205Z,97700.00
2023-02-01T08:41:15.085Z,97698.00
2023-02-01T08:46:36.284Z,97710.00
2023-02-01T08:52:00.993Z,97698.00
2023-02-01T08:57:25.526Z,97695.00
2023-02-01T09:02:47.576Z,97696.00
2023-02-01T09:08:09.320Z,97710.00
2023-02-01T09:13:31.291Z,97702.00
2023-02-01T09:18:56.534Z,97700.00
2023-02-01T09:24:29.220Z,97718.00
2023-02-01T09:29:53.742Z,97715.00
2023-02-01T09:35:15.202Z,97721.00
2023-02-01T09:40:37.142Z,97712.00
2023-02-01T09:46:17.930Z,97709.00
2023-02-01T09:51:46.559Z,97721.00
2023-02-01T09:57:17.248Z,97714.00
2023-02-01T10:02:41.184Z,97713.00
2023-02-01T10:08:15.492Z,97747.00
2023-02-01T10:14:03.941Z,97738.00
2023-02-01T10:19:30.788Z,97768.00
2023-02-01T10:25:01.630Z,97751.00
2023-02-01T10:30:26.071Z,97762.00
2023-02-01T10:35:51.693Z,97776.00
2023-02-01T10:41:24.623Z,97781.00
2023-02-01T10:46:46.302Z,97744.00
2023-02-01T10:52:45.010Z,97769.00
2023-02-01T10:58:16.871Z,97775.00
2023-02-01T11:03:43.309Z,97769.00
2023-02-01T11:09:25.929Z,97766.00
2023-02-01T11:14:49.609Z,97765.00
2023-02-01T11:20:18.621Z,97751.00
2023-02-01T11:25:48.615Z,97772.00
2023-02-01T11:31:13.803Z,97751.00
2023-02-01T11:36:38.055Z,97757.00
2023-02-01T11:42:07.446Z,97755.00
2023-02-01T11:47:40.044Z,97747.00
2023-02-01T11:53:31.677Z,97733.00
2023-02-01T11:59:11.199Z,97733.00
2023-02-01T12:04:53.904Z,97727.00
2023-02-01T12:10:36.531Z,97730.00
2023-02-01T12:16:16.320Z,97725.00
2023-02-01T12:21:57.724Z,97723.00
2023-02-01T12:27:48.601Z,97726.00
2023-02-01T12:33:23.091Z,97722.00
2023-02-01T12:38:58.649Z,97715.00
2023-02-01T12:44:41.565Z,97708.00
2023-02-01T12:50:05.752Z,97704.00
2023-02-01T12:55:36.776Z,97702.00
2023-02-01T13:01:03.405Z,97701.00
2023-02-01T13:06:31.034Z,97693.00
2023-02-01T13:12:00.632Z,97689.00
2023-02-01T13:17:26.370Z,97692.00
2023-02-01T13:22:53.173Z,97683.00
2023-02-01T13:28:26.750Z,97679.00
2023-02-01T13:34:09.765Z,97688.00
2023-02-01T13:40:00.995Z,97690.00
2023-02-01T13:45:31.968Z,97675.00
2023-02-01T13:50:57.307Z,97681.00
2023-02-01T13:56:21.266Z,97673.00
2023-02-01T14:01:42.668Z,97675.00
2023-02-01T14:07:04.050Z,97671.00
2023-02-01T14:12:45.592Z,97647.00
2023-02-01T14:18:35.161Z,97644.00
2023-02-01T14:23:58.163Z,97645.00
2023-02-01T14:29:36.215Z,97638.00
2023-02-01T14:35:01.233Z,97623.00
2023-02-01T14:40:27.310Z,97613.00
2023-02-01T14:45:51.908Z,97609.00
2023-02-01T14:51:17.411Z,97606.00
2023-02-01T14:56:39.299Z,97609.00
2023-02-01T15:02:03.322Z,97602.00
2023-02-01T15:07:28.463Z,97595.00
2023-02-01T15:12:51.256Z,97602.00
2023-02-01T15:18:19.750Z,97591.00
2023-02-01T15:23:41.213Z,97587.00
2023-02-01T15:29:02.813Z,97566.00
2023-02-01T15:34:24.188Z,97556.00
2023-02-01T15:40:10.910Z,97556.00
2023-02-01T15:45:34.725Z,97571.00
2023-02-01T15:50:56.978Z,97558.00
2023-02-01T15:56:25.221Z,97552.00
2023-02-01T16:01:47.118Z,97537.00
2023-02-01T16:07:29.968Z,97545.00
2023-02-01T16:12:53.158Z,97530.00
2023-02-01T16:18:18.780Z,97525.00
2023-02-01T16:23:40.625Z,97512.00
2023-02-01T16:29:07.154Z,97514.00
2023-02-01T16:34:28.630Z,97516.00
2023-02-01T16:39:50.494Z,97517.00
2023-02-01T16:45:12.155Z,97512.00
2023-02-01T16:50:34.766Z,97519.00
2023-02-01T16:55:58.353Z,97605.00
2023-02-01T17:01:21.088Z,97705.00
2023-02-01T17:06:42.800Z,97683.00
2023-02-01T17:12:05.278Z,97674.00
2023-02-01T17:17:38.735Z,97675.00
2023-02-01T17:23:01.167Z,97659.00
2023-02-01T17:28:22.459Z,97665.00
2023-02-01T17:33:45.264Z,97648.00
2023-02-01T17:39:06.784Z,97619.00
2023-02-01T17:44:28.530Z,97630.00
2023-02-01T17:49:56.488Z,97635.00
2023-02-01T17:55:24.315Z,97645.00
2023-02-01T18:00:47.774Z,97639.00
2023-02-01T18:06:18.282Z,97660.00
2023-02-01T18:11:39.553Z,97649.00
2023-02-01T18:17:01.205Z,97649.00
2023-02-01T18:22:24.544Z,97645.00
2023-02-01T18:27:46.409Z,97670.00
2023-02-01T18:33:14.923Z,97669.00
2023-02-01T18:38:36.145Z,97663.00
2023-02-01T18:43:57.656Z,97666.00
2023-02-01T18:49:19.923Z,97665.00
2023-02-01T18:54:57.648Z,97672.00
2023-02-01T19:00:22.541Z,97674.00
2023-02-01T19:05:43.816Z,97675.00
2023-02-01T19:11:10.181Z,97691.00
2023-02-01T19:16:31.489Z,97682.00
2023-02-01T19:21:53.017Z,97690.00
2023-02-01T19:27:14.658Z,97686.00
2023-02-01T19:32:36.369Z,97689.00
2023-02-01T19:37:58.126Z,97694.00
2023-02-01T19:43:19.485Z,97701.00
2023-02-01T19:48:40.893Z,97696.00
2023-02-01T19:54:02.446Z,97692.00
2023-02-01T19:59:24.081Z,97703.00
2023-02-01T20:04:44.965Z,97706.00
2023-02-01T20:10:07.844Z,97709.00
2023-02-01T20:15:29.406Z,97714.00
2023-02-01T20:20:54.782Z,97728.00
2023-02-01T20:26:17.241Z,97722.00
2023-02-01T20:31:38.786Z,97725.00
2023-02-01T20:37:00.260Z,97721.00
2023-02-01T20:42:21.779Z,97719.00
2023-02-01T20:47:43.493Z,97728.00
2023-02-01T20:53:05.655Z,97732.00
2023-02-01T20:58:27.326Z,97733.00
2023-02-01T21:03:48.593Z,97727.00
2023-02-01T21:09:10.089Z,97715.00
2023-02-01T21:14:31.649Z,97727.00
2023-02-01T21:19:53.165Z,97716.00
2023-02-01T21:25:14.818Z,97716.00
2023-02-01T21:30:37.283Z,97714.00
2023-02-01T21:35:59.258Z,97717.00
2023-02-01T21:41:42.118Z,97730.00
2023-02-01T21:47:03.769Z,97734.00
2023-02-01T21:52:25.393Z,97733.00
2023-02-01T21:57:46.967Z,97734.00
2023-02-01T22:03:08.629Z,97723.00
2023-02-01T22:08:30.229Z,97728.00
2023-02-01T22:13:52.302Z,97734.00
2023-02-01T22:19:14.955Z,97735.00
2023-02-01T22:24:36.291Z,97723.00
2023-02-01T22:29:57.942Z,97724.00
2023-02-01T22:35:19.566Z,97721.00
2023-02-01T22:40:41.342Z,97743.00
2023-02-01T22:46:08.592Z,97755.00
2023-02-01T22:51:31.967Z,97742.00
2023-02-01T22:56:54.142Z,97745.00
2023-02-01T23:02:15.616Z,97747.00
2023-02-01T23:07:36.998Z,97753.00
2023-02-01T23:12:58.466Z,97743.00
2023-02-01T23:18:19.929Z,97756.00
2023-02-01T23:23:46.677Z,97732.00
2023-02-01T23:29:10.079Z,97739.00
2023-02-01T23:34:31.896Z,97737.00
2023-02-01T23:39:53.703Z,97742.00
2023-02-01T23:45:15.124Z,97753.00
2023-02-01T23:50:36.571Z,97746.00
2023-02-01T23:55:58.516Z,97737.00
